sensor_id;sensor_type;location;lat;lon;timestamp;pressure;altitude;pressure_sealevel;temperature;humidity
40982;BME280;26708;50.304;19.028;2022-10-16T00:04:45;98551.03;;;17.41;65.91
40982;BME280;26708;50.304;19.028;2022-10-16T00:07:46;98554.56;;;17.40;65.98
40982;BME280;26708;50.304;19.028;2022-10-16T00:10:46;98561.56;;;17.41;66.03
40982;BME280;26708;50.304;19.028;2022-10-16T00:13:49;98557.16;;;17.43;66.09
40982;BME280;26708;50.304;19.028;2022-10-16T00:16:50;98522.38;;;17.22;66.14
40982;BME280;26708;50.304;19.028;2022-10-16T00:19:51;98555.44;;;17.41;66.20
40982;BME280;26708;50.304;19.028;2022-10-16T00:22:52;98539.75;;;17.33;66.19
40982;BME280;26708;50.304;19.028;2022-10-16T00:25:55;98523.13;;;17.30;66.46
40982;BME280;26708;50.304;19.028;2022-10-16T00:28:57;98550.16;;;17.42;66.36
40982;BME280;26708;50.304;19.028;2022-10-16T00:31:58;98532.75;;;17.32;66.29
40982;BME280;26708;50.304;19.028;2022-10-16T00:34:59;98546.69;;;17.40;66.40
40982;BME280;26708;50.304;19.028;2022-10-16T00:38:00;98539.69;;;17.35;66.44
40982;BME280;26708;50.304;19.028;2022-10-16T00:41:02;98507.66;;;17.10;66.46
40982;BME280;26708;50.304;19.028;2022-10-16T00:47:45;98539.06;;;17.21;66.77
40982;BME280;26708;50.304;19.028;2022-10-16T00:50:52;98529.53;;;17.14;66.98
40982;BME280;26708;50.304;19.028;2022-10-16T00:53:55;98527.00;;;17.08;67.02
40982;BME280;26708;50.304;19.028;2022-10-16T00:57:00;98558.34;;;17.21;67.17
40982;BME280;26708;50.304;19.028;2022-10-16T01:00:04;98560.16;;;17.19;67.51
40982;BME280;26708;50.304;19.028;2022-10-16T01:03:24;98561.88;;;17.19;67.27
40982;BME280;26708;50.304;19.028;2022-10-16T01:06:38;98564.53;;;17.19;67.31
40982;BME280;26708;50.304;19.028;2022-10-16T01:10:13;98563.69;;;17.15;67.26
40982;BME280;26708;50.304;19.028;2022-10-16T01:13:41;98564.53;;;17.19;67.32
40982;BME280;26708;50.304;19.028;2022-10-16T01:16:55;98568.94;;;17.18;67.61
40982;BME280;26708;50.304;19.028;2022-10-16T01:26:31;98558.66;;;17.02;68.15
40982;BME280;26708;50.304;19.028;2022-10-16T01:29:39;98566.63;;;16.96;68.17
40982;BME280;26708;50.304;19.028;2022-10-16T01:36:03;98552.84;;;16.82;68.65
40982;BME280;26708;50.304;19.028;2022-10-16T01:39:09;98559.91;;;16.77;68.84
40982;BME280;26708;50.304;19.028;2022-10-16T01:42:19;98571.19;;;16.86;68.70
40982;BME280;26708;50.304;19.028;2022-10-16T01:45:21;98569.38;;;16.88;68.77
40982;BME280;26708;50.304;19.028;2022-10-16T01:48:23;98545.03;;;16.74;68.52
40982;BME280;26708;50.304;19.028;2022-10-16T01:51:25;98570.25;;;16.89;68.75
40982;BME280;26708;50.304;19.028;2022-10-16T01:54:28;98552.88;;;16.79;68.54
40982;BME280;26708;50.304;19.028;2022-10-16T01:57:32;98552.91;;;16.76;68.79
40982;BME280;26708;50.304;19.028;2022-10-16T02:00:37;98572.00;;;16.90;68.42
40982;BME280;26708;50.304;19.028;2022-10-16T02:03:40;98565.09;;;16.83;68.26
40982;BME280;26708;50.304;19.028;2022-10-16T02:06:43;98549.47;;;16.71;68.20
40982;BME280;26708;50.304;19.028;2022-10-16T02:09:44;98574.63;;;16.90;67.96
40982;BME280;26708;50.304;19.028;2022-10-16T02:12:50;98573.06;;;16.78;67.97
40982;BME280;26708;50.304;19.028;2022-10-16T02:15:51;98595.75;;;16.85;67.96
40982;BME280;26708;50.304;19.028;2022-10-16T02:18:55;98596.66;;;16.83;68.04
40982;BME280;26708;50.304;19.028;2022-10-16T02:21:58;98602.81;;;16.79;67.96
40982;BME280;26708;50.304;19.028;2022-10-16T02:25:20;98557.63;;;16.51;68.22
40982;BME280;26708;50.304;19.028;2022-10-16T02:28:31;98576.00;;;16.54;68.66
40982;BME280;26708;50.304;19.028;2022-10-16T02:31:39;98588.22;;;16.58;68.55
40982;BME280;26708;50.304;19.028;2022-10-16T02:34:42;98596.28;;;16.43;69.04
40982;BME280;26708;50.304;19.028;2022-10-16T02:37:46;98589.22;;;16.47;69.08
40982;BME280;26708;50.304;19.028;2022-10-16T02:40:47;98542.31;;;16.14;69.18
40982;BME280;26708;50.304;19.028;2022-10-16T02:43:48;98580.66;;;16.28;69.52
40982;BME280;26708;50.304;19.028;2022-10-16T02:46:50;98581.63;;;16.23;70.01
40982;BME280;26708;50.304;19.028;2022-10-16T02:49:51;98586.88;;;16.23;70.06
40982;BME280;26708;50.304;19.028;2022-10-16T02:52:52;98585.16;;;16.19;69.95
40982;BME280;26708;50.304;19.028;2022-10-16T02:55:53;98591.28;;;16.21;69.55
40982;BME280;26708;50.304;19.028;2022-10-16T02:58:53;98572.22;;;16.04;69.49
40982;BME280;26708;50.304;19.028;2022-10-16T03:01:55;98600.06;;;16.18;68.67
40982;BME280;26708;50.304;19.028;2022-10-16T03:04:55;98608.84;;;16.16;68.87
40982;BME280;26708;50.304;19.028;2022-10-16T03:07:56;98590.56;;;16.05;68.99
40982;BME280;26708;50.304;19.028;2022-10-16T03:10:58;98608.06;;;16.08;68.85
40982;BME280;26708;50.304;19.028;2022-10-16T03:14:00;98608.06;;;16.08;68.80
40982;BME280;26708;50.304;19.028;2022-10-16T03:17:01;98613.34;;;16.03;68.74
40982;BME280;26708;50.304;19.028;2022-10-16T03:20:04;98623.91;;;15.99;68.86
40982;BME280;26708;50.304;19.028;2022-10-16T03:23:06;98620.44;;;15.94;69.33
40982;BME280;26708;50.304;19.028;2022-10-16T03:26:08;98617.88;;;15.91;69.21
40982;BME280;26708;50.304;19.028;2022-10-16T03:29:09;98608.31;;;15.84;69.01
40982;BME280;26708;50.304;19.028;2022-10-16T03:32:10;98621.47;;;15.81;69.67
40982;BME280;26708;50.304;19.028;2022-10-16T03:35:11;98616.22;;;15.76;70.19
40982;BME280;26708;50.304;19.028;2022-10-16T03:38:12;98598.03;;;15.60;70.24
40982;BME280;26708;50.304;19.028;2022-10-16T03:41:12;98614.59;;;15.66;70.68
40982;BME280;26708;50.304;19.028;2022-10-16T03:44:13;98631.19;;;15.73;69.74
40982;BME280;26708;50.304;19.028;2022-10-16T03:47:14;98626.81;;;15.67;69.50
40982;BME280;26708;50.304;19.028;2022-10-16T03:50:15;98626.81;;;15.69;69.44
40982;BME280;26708;50.304;19.028;2022-10-16T03:53:16;98616.50;;;15.51;69.39
40982;BME280;26708;50.304;19.028;2022-10-16T03:56:17;98624.28;;;15.57;69.67
40982;BME280;26708;50.304;19.028;2022-10-16T03:59:19;98631.22;;;15.64;69.29
40982;BME280;26708;50.304;19.028;2022-10-16T04:02:19;98615.59;;;15.53;69.69
40982;BME280;26708;50.304;19.028;2022-10-16T04:05:20;98626.06;;;15.55;69.69
40982;BME280;26708;50.304;19.028;2022-10-16T04:08:21;98638.28;;;15.59;69.79
40982;BME280;26708;50.304;19.028;2022-10-16T04:11:23;98621.69;;;15.52;70.23
40982;BME280;26708;50.304;19.028;2022-10-16T04:14:25;98623.47;;;15.50;70.02
40982;BME280;26708;50.304;19.028;2022-10-16T04:17:25;98642.66;;;15.60;69.88
40982;BME280;26708;50.304;19.028;2022-10-16T04:20:26;98641.75;;;15.61;70.01
40982;BME280;26708;50.304;19.028;2022-10-16T04:23:27;98635.63;;;15.62;69.82
40982;BME280;26708;50.304;19.028;2022-10-16T04:26:28;98645.28;;;15.61;70.11
40982;BME280;26708;50.304;19.028;2022-10-16T04:29:29;98642.66;;;15.60;69.90
40982;BME280;26708;50.304;19.028;2022-10-16T04:32:30;98635.66;;;15.56;69.87
40982;BME280;26708;50.304;19.028;2022-10-16T04:35:34;98640.06;;;15.54;70.10
40982;BME280;26708;50.304;19.028;2022-10-16T04:38:36;98631.34;;;15.49;70.22
40982;BME280;26708;50.304;19.028;2022-10-16T04:41:40;98635.78;;;15.44;70.80
40982;BME280;26708;50.304;19.028;2022-10-16T04:44:41;98632.28;;;15.43;70.56
40982;BME280;26708;50.304;19.028;2022-10-16T04:47:42;98641.84;;;15.49;70.14
40982;BME280;26708;50.304;19.028;2022-10-16T04:50:42;98612.25;;;15.32;70.51
40982;BME280;26708;50.304;19.028;2022-10-16T04:53:43;98642.72;;;15.48;70.42
40982;BME280;26708;50.304;19.028;2022-10-16T04:56:44;98612.25;;;15.26;70.30
40982;BME280;26708;50.304;19.028;2022-10-16T04:59:47;98648.00;;;15.46;69.99
40982;BME280;26708;50.304;19.028;2022-10-16T05:02:52;98636.63;;;15.46;70.22
40982;BME280;26708;50.304;19.028;2022-10-16T05:05:53;98635.81;;;15.39;70.42
40982;BME280;26708;50.304;19.028;2022-10-16T05:08:53;98640.16;;;15.46;70.24
40982;BME280;26708;50.304;19.028;2022-10-16T05:11:54;98647.16;;;15.43;69.72
40982;BME280;26708;50.304;19.028;2022-10-16T05:14:55;98652.38;;;15.44;70.42
40982;BME280;26708;50.304;19.028;2022-10-16T05:17:58;98667.22;;;15.47;70.32
40982;BME280;26708;50.304;19.028;2022-10-16T05:20:59;98676.84;;;15.51;69.90
40982;BME280;26708;50.304;19.028;2022-10-16T05:24:00;98679.47;;;15.51;69.96
40982;BME280;26708;50.304;19.028;2022-10-16T05:27:01;98678.59;;;15.50;70.18
40982;BME280;26708;50.304;19.028;2022-10-16T05:30:02;98682.09;;;15.48;70.43
40982;BME280;26708;50.304;19.028;2022-10-16T05:33:03;98661.16;;;15.39;70.23
40982;BME280;26708;50.304;19.028;2022-10-16T05:36:07;98675.09;;;15.47;70.56
40982;BME280;26708;50.304;19.028;2022-10-16T05:39:09;98691.69;;;15.49;70.19
40982;BME280;26708;50.304;19.028;2022-10-16T05:42:10;98683.81;;;15.49;70.04
40982;BME280;26708;50.304;19.028;2022-10-16T05:45:11;98688.25;;;15.41;70.63
40982;BME280;26708;50.304;19.028;2022-10-16T05:48:12;98683.06;;;15.32;71.10
40982;BME280;26708;50.304;19.028;2022-10-16T05:51:14;98693.53;;;15.36;71.50
40982;BME280;26708;50.304;19.028;2022-10-16T05:54:14;98701.38;;;15.41;71.36
40982;BME280;26708;50.304;19.028;2022-10-16T05:57:15;98707.44;;;15.50;71.36
40982;BME280;26708;50.304;19.028;2022-10-16T06:00:16;98709.19;;;15.51;71.05
40982;BME280;26708;50.304;19.028;2022-10-16T06:03:17;98710.06;;;15.49;70.99
40982;BME280;26708;50.304;19.028;2022-10-16T06:06:19;98729.25;;;15.58;71.25
40982;BME280;26708;50.304;19.028;2022-10-16T06:09:21;98691.78;;;15.43;71.22
40982;BME280;26708;50.304;19.028;2022-10-16T06:12:21;98725.75;;;15.62;71.16
40982;BME280;26708;50.304;19.028;2022-10-16T06:15:22;98735.31;;;15.69;71.07
40982;BME280;26708;50.304;19.028;2022-10-16T06:18:23;98737.88;;;15.77;70.83
40982;BME280;26708;50.304;19.028;2022-10-16T06:21:26;98749.25;;;15.79;70.80
40982;BME280;26708;50.304;19.028;2022-10-16T06:24:27;98731.78;;;15.73;70.72
40982;BME280;26708;50.304;19.028;2022-10-16T06:27:28;98746.56;;;15.83;70.51
40982;BME280;26708;50.304;19.028;2022-10-16T06:30:29;98753.56;;;15.86;70.74
40982;BME280;26708;50.304;19.028;2022-10-16T06:33:30;98738.81;;;15.73;70.85
40982;BME280;26708;50.304;19.028;2022-10-16T06:36:31;98756.22;;;15.83;71.14
40982;BME280;26708;50.304;19.028;2022-10-16T06:39:31;98748.34;;;15.83;71.04
40982;BME280;26708;50.304;19.028;2022-10-16T06:42:32;98757.00;;;15.97;70.87
40982;BME280;26708;50.304;19.028;2022-10-16T06:45:33;98759.56;;;16.03;70.70
40982;BME280;26708;50.304;19.028;2022-10-16T06:48:34;98765.59;;;16.15;70.66
40982;BME280;26708;50.304;19.028;2022-10-16T06:51:35;98718.41;;;16.05;70.42
40982;BME280;26708;50.304;19.028;2022-10-16T06:54:40;98759.22;;;16.43;70.11
40982;BME280;26708;50.304;19.028;2022-10-16T06:57:41;98759.94;;;16.60;70.02
40982;BME280;26708;50.304;19.028;2022-10-16T07:00:42;98774.59;;;16.81;69.11
40982;BME280;26708;50.304;19.028;2022-10-16T07:03:44;98775.34;;;16.95;68.90
40982;BME280;26708;50.304;19.028;2022-10-16T07:06:45;98778.69;;;17.07;68.20
40982;BME280;26708;50.304;19.028;2022-10-16T07:09:46;98776.75;;;17.21;68.00
40982;BME280;26708;50.304;19.028;2022-10-16T07:12:47;98769.56;;;17.35;68.17
40982;BME280;26708;50.304;19.028;2022-10-16T07:15:47;98765.03;;;17.49;66.99
40982;BME280;26708;50.304;19.028;2022-10-16T07:18:48;98753.53;;;17.56;65.69
40982;BME280;26708;50.304;19.028;2022-10-16T07:21:49;98768.22;;;17.71;64.63
40982;BME280;26708;50.304;19.028;2022-10-16T07:24:50;98774.25;;;17.79;63.83
40982;BME280;26708;50.304;19.028;2022-10-16T07:27:52;98775.91;;;17.87;64.11
40982;BME280;26708;50.304;19.028;2022-10-16T07:30:53;98782.81;;;17.94;63.66
40982;BME280;26708;50.304;19.028;2022-10-16T07:33:54;98775.59;;;18.05;63.36
40982;BME280;26708;50.304;19.028;2022-10-16T07:36:55;98782.53;;;18.12;62.69
40982;BME280;26708;50.304;19.028;2022-10-16T07:39:55;98789.28;;;18.28;62.77
40982;BME280;26708;50.304;19.028;2022-10-16T07:42:56;98774.25;;;18.36;62.71
40982;BME280;26708;50.304;19.028;2022-10-16T07:45:57;98782.78;;;18.50;62.07
40982;BME280;26708;50.304;19.028;2022-10-16T07:48:58;98779.09;;;18.60;61.79
40982;BME280;26708;50.304;19.028;2022-10-16T07:51:59;98725.88;;;18.37;61.58
40982;BME280;26708;50.304;19.028;2022-10-16T07:54:59;98746.59;;;18.60;60.86
40982;BME280;26708;50.304;19.028;2022-10-16T07:58:00;98790.00;;;18.89;60.06
40982;BME280;26708;50.304;19.028;2022-10-16T08:01:07;98797.78;;;18.95;60.37
40982;BME280;26708;50.304;19.028;2022-10-16T08:04:08;98803.00;;;18.98;60.32
40982;BME280;26708;50.304;19.028;2022-10-16T08:07:09;98799.41;;;19.02;60.31
40982;BME280;26708;50.304;19.028;2022-10-16T08:10:19;98801.09;;;19.05;60.54
40982;BME280;26708;50.304;19.028;2022-10-16T08:13:20;98795.88;;;19.03;60.44
40982;BME280;26708;50.304;19.028;2022-10-16T08:16:21;98793.91;;;19.13;59.70
40982;BME280;26708;50.304;19.028;2022-10-16T08:19:22;98794.72;;;19.19;58.35
40982;BME280;26708;50.304;19.028;2022-10-16T08:22:22;98791.91;;;19.27;58.39
40982;BME280;26708;50.304;19.028;2022-10-16T08:25:24;98772.69;;;19.20;58.07
40982;BME280;26708;50.304;19.028;2022-10-16T08:28:26;98786.41;;;19.37;57.98
40982;BME280;26708;50.304;19.028;2022-10-16T08:31:26;98804.59;;;19.50;57.34
40982;BME280;26708;50.304;19.028;2022-10-16T08:34:27;98778.38;;;19.42;57.21
40982;BME280;26708;50.304;19.028;2022-10-16T08:37:32;98810.59;;;19.58;56.58
40982;BME280;26708;50.304;19.028;2022-10-16T08:40:35;98794.09;;;19.48;56.72
40982;BME280;26708;50.304;19.028;2022-10-16T08:49:59;98820.91;;;19.70;56.59
40982;BME280;26708;50.304;19.028;2022-10-16T08:53:03;98801.59;;;19.68;56.83
40982;BME280;26708;50.304;19.028;2022-10-16T08:56:05;98817.94;;;19.85;56.46
40982;BME280;26708;50.304;19.028;2022-10-16T08:59:09;98818.69;;;19.90;56.50
40982;BME280;26708;50.304;19.028;2022-10-16T09:02:36;98821.28;;;19.93;56.36
40982;BME280;26708;50.304;19.028;2022-10-16T09:06:00;98814.16;;;19.97;56.21
40982;BME280;26708;50.304;19.028;2022-10-16T09:16:31;98804.53;;;19.93;56.17
40982;BME280;26708;50.304;19.028;2022-10-16T09:19:38;98821.00;;;20.05;56.41
40982;BME280;26708;50.304;19.028;2022-10-16T09:22:42;98813.16;;;20.01;56.33
40982;BME280;26708;50.304;19.028;2022-10-16T09:25:46;98794.78;;;19.95;56.51
40982;BME280;26708;50.304;19.028;2022-10-16T09:28:48;98841.06;;;20.15;56.58
40982;BME280;26708;50.304;19.028;2022-10-16T09:31:49;98819.22;;;20.07;56.33
40982;BME280;26708;50.304;19.028;2022-10-16T09:34:52;98841.78;;;20.22;56.64
40982;BME280;26708;50.304;19.028;2022-10-16T09:37:55;98824.31;;;20.15;56.67
40982;BME280;26708;50.304;19.028;2022-10-16T09:41:00;98834.75;;;20.22;56.52
40982;BME280;26708;50.304;19.028;2022-10-16T09:44:04;98791.94;;;20.04;55.96
40982;BME280;26708;50.304;19.028;2022-10-16T09:47:18;98801.50;;;20.11;56.13
40982;BME280;26708;50.304;19.028;2022-10-16T09:50:28;98836.28;;;20.31;56.56
40982;BME280;26708;50.304;19.028;2022-10-16T09:53:39;98855.47;;;20.39;56.89
40982;BME280;26708;50.304;19.028;2022-10-16T09:56:40;98850.97;;;20.42;56.44
40982;BME280;26708;50.304;19.028;2022-10-16T09:59:50;98851.75;;;20.47;56.50
40982;BME280;26708;50.304;19.028;2022-10-16T10:02:52;98811.63;;;20.30;56.16
40982;BME280;26708;50.304;19.028;2022-10-16T10:05:55;98858.56;;;20.57;56.56
40982;BME280;26708;50.304;19.028;2022-10-16T10:08:57;98842.75;;;20.54;56.29
40982;BME280;26708;50.304;19.028;2022-10-16T10:11:59;98842.56;;;20.62;57.07
40982;BME280;26708;50.304;19.028;2022-10-16T10:15:11;98855.50;;;20.74;56.53
40982;BME280;26708;50.304;19.028;2022-10-16T10:18:22;98839.78;;;20.68;56.21
40982;BME280;26708;50.304;19.028;2022-10-16T10:21:24;98822.28;;;20.62;56.40
40982;BME280;26708;50.304;19.028;2022-10-16T10:24:25;98855.19;;;20.87;55.81
40982;BME280;26708;50.304;19.028;2022-10-16T10:34:09;98854.94;;;20.96;55.63
40982;BME280;26708;50.304;19.028;2022-10-16T10:59:00;98851.56;;;21.23;55.76
40982;BME280;26708;50.304;19.028;2022-10-16T11:02:37;98835.72;;;21.20;55.73
40982;BME280;26708;50.304;19.028;2022-10-16T11:05:44;98847.94;;;21.26;55.20
40982;BME280;26708;50.304;19.028;2022-10-16T11:09:13;98851.38;;;21.29;55.50
40982;BME280;26708;50.304;19.028;2022-10-16T11:12:41;98849.63;;;21.28;55.92
40982;BME280;26708;50.304;19.028;2022-10-16T11:15:44;98837.22;;;21.30;56.24
40982;BME280;26708;50.304;19.028;2022-10-16T11:18:55;98844.22;;;21.33;56.08
40982;BME280;26708;50.304;19.028;2022-10-16T11:25:32;98828.59;;;21.22;55.68
40982;BME280;26708;50.304;19.028;2022-10-16T11:28:53;98853.91;;;21.34;56.01
40982;BME280;26708;50.304;19.028;2022-10-16T11:32:04;98836.41;;;21.28;56.03
40982;BME280;26708;50.304;19.028;2022-10-16T11:35:17;98837.16;;;21.33;55.98
40982;BME280;26708;50.304;19.028;2022-10-16T11:41:46;98847.22;;;21.51;56.21
40982;BME280;26708;50.304;19.028;2022-10-16T11:48:21;98836.22;;;21.66;56.10
40982;BME280;26708;50.304;19.028;2022-10-16T11:55:15;98845.59;;;21.78;56.04
40982;BME280;26708;50.304;19.028;2022-10-16T11:58:35;98840.19;;;21.81;55.35
40982;BME280;26708;50.304;19.028;2022-10-16T12:08:34;98849.66;;;21.89;55.23
40982;BME280;26708;50.304;19.028;2022-10-16T12:11:38;98853.19;;;21.90;54.65
40982;BME280;26708;50.304;19.028;2022-10-16T12:14:39;98847.19;;;21.83;54.88
40982;BME280;26708;50.304;19.028;2022-10-16T12:17:40;98852.34;;;21.88;54.82
40982;BME280;26708;50.304;19.028;2022-10-16T12:20:41;98857.56;;;21.91;54.88
40982;BME280;26708;50.304;19.028;2022-10-16T12:23:49;98851.38;;;21.90;55.19
40982;BME280;26708;50.304;19.028;2022-10-16T12:26:52;98868.19;;;21.91;55.25
40982;BME280;26708;50.304;19.028;2022-10-16T12:29:58;98869.00;;;21.93;54.93
40982;BME280;26708;50.304;19.028;2022-10-16T12:33:05;98848.03;;;21.85;54.92
40982;BME280;26708;50.304;19.028;2022-10-16T12:36:13;98847.09;;;21.86;54.57
40982;BME280;26708;50.304;19.028;2022-10-16T12:39:23;98794.91;;;21.58;54.44
40982;BME280;26708;50.304;19.028;2022-10-16T12:45:31;98865.47;;;21.92;55.12
40982;BME280;26708;50.304;19.028;2022-10-16T12:48:33;98886.78;;;21.89;55.67
40982;BME280;26708;50.304;19.028;2022-10-16T12:51:36;98853.41;;;21.82;55.71
40982;BME280;26708;50.304;19.028;2022-10-16T12:54:38;98844.78;;;21.76;55.77
40982;BME280;26708;50.304;19.028;2022-10-16T12:58:03;98870.34;;;21.78;55.93
40982;BME280;26708;50.304;19.028;2022-10-16T13:01:22;98860.13;;;21.63;56.44
40982;BME280;26708;50.304;19.028;2022-10-16T13:11:47;98879.00;;;21.53;57.10
40982;BME280;26708;50.304;19.028;2022-10-16T13:15:15;98873.81;;;21.48;57.42
40982;BME280;26708;50.304;19.028;2022-10-16T13:24:57;98880.31;;;21.37;57.47
40982;BME280;26708;50.304;19.028;2022-10-16T13:28:05;98888.22;;;21.38;57.63
40982;BME280;26708;50.304;19.028;2022-10-16T13:31:15;98885.50;;;21.41;57.75
40982;BME280;26708;50.304;19.028;2022-10-16T13:34:20;98892.50;;;21.44;57.31
40982;BME280;26708;50.304;19.028;2022-10-16T13:37:24;98881.81;;;21.47;57.24
40982;BME280;26708;50.304;19.028;2022-10-16T13:40:25;98880.06;;;21.46;57.19
40982;BME280;26708;50.304;19.028;2022-10-16T13:46:41;98864.47;;;21.35;57.48
40982;BME280;26708;50.304;19.028;2022-10-16T13:49:42;98872.25;;;21.41;57.32
40982;BME280;26708;50.304;19.028;2022-10-16T13:52:43;98871.47;;;21.38;57.58
40982;BME280;26708;50.304;19.028;2022-10-16T13:55:44;98853.03;;;21.33;57.19
40982;BME280;26708;50.304;19.028;2022-10-16T13:59:21;98861.63;;;21.43;56.89
40982;BME280;26708;50.304;19.028;2022-10-16T14:02:28;98873.97;;;21.42;56.74
40982;BME280;26708;50.304;19.028;2022-10-16T14:05:32;98870.50;;;21.40;56.47
40982;BME280;26708;50.304;19.028;2022-10-16T14:08:33;98877.44;;;21.44;56.33
40982;BME280;26708;50.304;19.028;2022-10-16T14:11:42;98857.41;;;21.36;56.50
40982;BME280;26708;50.304;19.028;2022-10-16T14:14:51;98882.69;;;21.47;56.42
40982;BME280;26708;50.304;19.028;2022-10-16T14:17:54;98884.47;;;21.45;56.53
40982;BME280;26708;50.304;19.028;2022-10-16T14:21:02;98895.88;;;21.49;56.24
40982;BME280;26708;50.304;19.028;2022-10-16T14:24:33;98909.88;;;21.54;55.88
40982;BME280;26708;50.304;19.028;2022-10-16T14:27:36;98896.88;;;21.45;55.93
40982;BME280;26708;50.304;19.028;2022-10-16T14:30:57;98892.50;;;21.44;55.51
40982;BME280;26708;50.304;19.028;2022-10-16T14:33:59;98893.22;;;21.49;55.19
40982;BME280;26708;50.304;19.028;2022-10-16T14:37:09;98902.69;;;21.59;55.10
40982;BME280;26708;50.304;19.028;2022-10-16T14:40:15;98906.81;;;21.70;54.87
40982;BME280;26708;50.304;19.028;2022-10-16T14:43:22;98911.13;;;21.73;54.74
40982;BME280;26708;50.304;19.028;2022-10-16T14:46:38;98877.28;;;21.50;54.55
40982;BME280;26708;50.304;19.028;2022-10-16T14:49:41;98874.53;;;21.53;54.83
40982;BME280;26708;50.304;19.028;2022-10-16T14:52:42;98894.53;;;21.66;54.59
40982;BME280;26708;50.304;19.028;2022-10-16T14:55:44;98912.09;;;21.70;54.66
40982;BME280;26708;50.304;19.028;2022-10-16T14:58:45;98918.38;;;21.65;54.67
40982;BME280;26708;50.304;19.028;2022-10-16T15:01:46;98906.31;;;21.55;54.67
40982;BME280;26708;50.304;19.028;2022-10-16T15:04:48;98920.31;;;21.60;54.83
40982;BME280;26708;50.304;19.028;2022-10-16T15:07:49;98920.59;;;21.49;55.28
40982;BME280;26708;50.304;19.028;2022-10-16T15:10:50;98838.09;;;20.99;55.34
40982;BME280;26708;50.304;19.028;2022-10-16T15:13:51;98924.88;;;21.55;55.51
40982;BME280;26708;50.304;19.028;2022-10-16T15:16:52;98919.69;;;21.50;55.85
40982;BME280;26708;50.304;19.028;2022-10-16T15:19:53;98925.00;;;21.50;55.68
40982;BME280;26708;50.304;19.028;2022-10-16T15:22:54;98923.25;;;21.49;55.78
40982;BME280;26708;50.304;19.028;2022-10-16T15:25:55;98920.72;;;21.45;55.78
40982;BME280;26708;50.304;19.028;2022-10-16T15:28:57;98918.13;;;21.43;55.94
40982;BME280;26708;50.304;19.028;2022-10-16T15:31:58;98937.44;;;21.48;56.04
40982;BME280;26708;50.304;19.028;2022-10-16T15:34:58;98938.34;;;21.47;56.19
40982;BME280;26708;50.304;19.028;2022-10-16T15:37:59;98929.66;;;21.41;56.48
40982;BME280;26708;50.304;19.028;2022-10-16T15:41:00;98941.22;;;21.38;56.63
40982;BME280;26708;50.304;19.028;2022-10-16T15:44:01;98935.06;;;21.38;56.79
40982;BME280;26708;50.304;19.028;2022-10-16T15:47:02;98930.94;;;21.26;56.97
40982;BME280;26708;50.304;19.028;2022-10-16T15:50:03;98923.31;;;21.14;57.25
40982;BME280;26708;50.304;19.028;2022-10-16T15:53:04;98948.59;;;21.26;57.31
40982;BME280;26708;50.304;19.028;2022-10-16T15:56:07;98950.53;;;21.21;57.51
40982;BME280;26708;50.304;19.028;2022-10-16T15:59:08;98959.41;;;21.18;57.77
40982;BME280;26708;50.304;19.028;2022-10-16T16:02:09;98961.25;;;21.16;57.98
40982;BME280;26708;50.304;19.028;2022-10-16T16:05:10;98950.91;;;21.06;58.12
40982;BME280;26708;50.304;19.028;2022-10-16T16:08:11;98945.88;;;20.95;58.33
40982;BME280;26708;50.304;19.028;2022-10-16T16:11:14;98964.22;;;21.03;58.59
40982;BME280;26708;50.304;19.028;2022-10-16T16:14:15;98945.19;;;20.86;58.75
40982;BME280;26708;50.304;19.028;2022-10-16T16:17:16;98860.09;;;20.29;58.74
40982;BME280;26708;50.304;19.028;2022-10-16T16:20:18;98923.53;;;20.70;58.84
40982;BME280;26708;50.304;19.028;2022-10-16T16:23:19;98967.19;;;20.89;59.00
40982;BME280;26708;50.304;19.028;2022-10-16T16:26:28;98929.97;;;20.59;59.15
40982;BME280;26708;50.304;19.028;2022-10-16T16:29:34;98991.13;;;20.86;59.43
40982;BME280;26708;50.304;19.028;2022-10-16T16:32:35;98970.22;;;20.73;59.44
40982;BME280;26708;50.304;19.028;2022-10-16T16:35:37;98996.66;;;20.74;59.49
40982;BME280;26708;50.304;19.028;2022-10-16T16:38:38;99001.09;;;20.74;59.62
40982;BME280;26708;50.304;19.028;2022-10-16T16:41:38;99017.81;;;20.74;59.69
40982;BME280;26708;50.304;19.028;2022-10-16T16:48:45;99024.25;;;20.64;59.73
40982;BME280;26708;50.304;19.028;2022-10-16T16:51:46;99022.50;;;20.63;60.10
40982;BME280;26708;50.304;19.028;2022-10-16T16:54:47;99003.47;;;20.46;60.51
40982;BME280;26708;50.304;19.028;2022-10-16T16:57:51;99021.91;;;20.51;60.68
40982;BME280;26708;50.304;19.028;2022-10-16T17:00:52;99001.97;;;20.35;60.63
40982;BME280;26708;50.304;19.028;2022-10-16T17:03:56;99025.69;;;20.39;60.55
40982;BME280;26708;50.304;19.028;2022-10-16T17:06:57;99006.66;;;20.22;60.56
40982;BME280;26708;50.304;19.028;2022-10-16T17:09:58;98995.34;;;20.14;60.71
40982;BME280;26708;50.304;19.028;2022-10-16T17:12:59;99020.84;;;20.17;60.81
40982;BME280;26708;50.304;19.028;2022-10-16T17:16:00;99048.97;;;20.22;61.61
40982;BME280;26708;50.304;19.028;2022-10-16T17:19:06;99059.59;;;20.18;61.76
40982;BME280;26708;50.304;19.028;2022-10-16T17:22:09;99057.19;;;20.07;61.88
40982;BME280;26708;50.304;19.028;2022-10-16T17:25:09;99056.25;;;20.10;61.94
40982;BME280;26708;50.304;19.028;2022-10-16T17:28:12;99060.72;;;20.06;62.00
40982;BME280;26708;50.304;19.028;2022-10-16T17:31:16;99062.56;;;20.01;61.91
40982;BME280;26708;50.304;19.028;2022-10-16T17:34:17;99063.50;;;19.99;62.24
40982;BME280;26708;50.304;19.028;2022-10-16T17:37:18;99072.44;;;19.92;62.25
40982;BME280;26708;50.304;19.028;2022-10-16T17:40:19;99073.41;;;19.86;62.36
40982;BME280;26708;50.304;19.028;2022-10-16T17:43:20;99088.38;;;19.89;62.26
40982;BME280;26708;50.304;19.028;2022-10-16T17:46:22;99096.31;;;19.87;62.43